Time;durP1;ratioP1;P1;durP2;ratioP2;P2;SDS_P1;SDS_P2;PMS_P1;PMS_P2;Temp;Humidity;BMP_temperature;BMP_pressure;BME280_temperature;BME280_humidity;BME280_pressure;Samples;Min_cycle;Max_cycle;Signal;HPM_P1;HPM_P2
2023/11/25 00:02:18;;;;;;;2.92;1.02;;;;;;;2.69;73.13;91430.59;2046717;70;20683;-80
2023/11/25 00:04:44;;;;;;;1.95;1.02;;;;;;;2.78;73.56;91432.59;2046419;70;20146;-80
2023/11/25 00:07:09;;;;;;;1.98;1.30;;;;;;;2.78;73.48;91438.16;2048542;70;20174;-80
2023/11/25 00:09:35;;;;;;;2.17;1.10;;;;;;;2.85;72.94;91453.22;2048464;70;20222;-81
2023/11/25 00:12:01;;;;;;;1.83;1.00;;;;;;;2.28;75.77;91441.66;2047204;70;20159;-80
2023/11/25 00:14:26;;;;;;;1.45;1.20;;;;;;;2.48;73.92;91422.94;2049133;70;20154;-80
2023/11/25 00:16:52;;;;;;;1.00;0.90;;;;;;;2.64;73.64;91430.91;2050131;70;20225;-83
2023/11/25 00:19:18;;;;;;;0.60;0.60;;;;;;;2.79;73.09;91428.53;2048755;70;20146;-82
2023/11/25 00:21:43;;;;;;;1.40;0.70;;;;;;;2.59;72.88;91429.16;2047876;70;20146;-83
2023/11/25 00:24:09;;;;;;;1.33;0.68;;;;;;;2.44;72.82;91408.75;2048865;70;20625;-82
2023/11/25 00:26:34;;;;;;;0.50;0.50;;;;;;;2.70;71.51;91417.41;2047756;70;20255;-81
2023/11/25 00:29:03;;;;;;;1.00;0.57;;;;;;;2.43;71.81;91418.41;2047051;70;20183;-81
2023/11/25 00:31:33;;;;;;;1.27;0.90;;;;;;;1.69;77.41;91429.16;2044011;70;20221;-81
2023/11/25 00:34:02;;;;;;;1.40;0.90;;;;;;;2.38;75.11;91421.47;2047902;70;20583;-80
2023/11/25 00:36:28;;;;;;;2.60;1.27;;;;;;;2.08;75.12;91414.53;2047630;70;20185;-80
2023/11/25 00:38:55;;;;;;;1.83;1.40;;;;;;;2.13;76.12;91413.50;2047740;70;20147;-81
2023/11/25 00:41:20;;;;;;;1.10;0.93;;;;;;;2.46;75.10;91402.59;2044543;70;20540;-81
2023/11/25 00:43:47;;;;;;;1.95;1.30;;;;;;;2.39;75.29;91397.97;2044621;70;20141;-80
2023/11/25 00:46:13;;;;;;;1.40;1.30;;;;;;;2.52;74.58;91400.97;2041510;70;20150;-81
2023/11/25 00:48:38;;;;;;;1.17;1.00;;;;;;;2.53;74.41;91410.78;2044390;70;20150;-81
2023/11/25 00:51:04;;;;;;;0.98;0.80;;;;;;;2.57;73.86;91415.13;2044179;70;20137;-81
2023/11/25 00:53:30;;;;;;;1.88;1.08;;;;;;;2.20;74.97;91418.16;2044388;70;20607;-79
2023/11/25 00:55:55;;;;;;;1.35;0.82;;;;;;;2.29;74.72;91422.97;2047603;70;20148;-81
2023/11/25 00:58:22;;;;;;;0.98;0.80;;;;;;;2.29;75.29;91401.50;2047558;70;20178;-81
2023/11/25 01:00:49;;;;;;;1.52;0.80;;;;;;;2.54;74.18;91423.34;2047555;70;20164;-81
2023/11/25 01:03:18;;;;;;;1.45;0.82;;;;;;;2.66;73.33;91426.22;2047667;70;20155;-80
2023/11/25 01:05:47;;;;;;;1.30;0.65;;;;;;;2.06;75.33;91434.53;2043969;70;20206;-80
2023/11/25 01:08:13;;;;;;;1.52;1.00;;;;;;;2.47;74.62;91429.78;2047626;70;20241;-79
2023/11/25 01:10:40;;;;;;;1.65;0.80;;;;;;;2.46;74.67;91424.81;2047589;70;20153;-80
2023/11/25 01:13:10;;;;;;;2.53;0.80;;;;;;;2.46;75.10;91424.81;2047580;70;20158;-79
2023/11/25 01:15:39;;;;;;;1.00;0.90;;;;;;;2.61;74.18;91401.50;2047440;70;20484;-80
2023/11/25 01:18:05;;;;;;;1.55;0.90;;;;;;;2.72;73.65;91412.00;2047735;70;20170;-80
2023/11/25 01:20:36;;;;;;;1.50;0.82;;;;;;;2.58;73.79;91400.66;2044324;70;20214;-80
2023/11/25 01:23:06;;;;;;;0.80;0.60;;;;;;;2.67;73.56;91405.44;2044316;70;20146;-81
2023/11/25 01:25:32;;;;;;;1.95;0.70;;;;;;;2.70;73.17;91407.06;2047602;70;20150;-80
2023/11/25 01:27:58;;;;;;;1.25;0.63;;;;;;;2.71;73.52;91421.69;2047593;70;20175;-81
2023/11/25 01:30:24;;;;;;;1.00;0.70;;;;;;;2.64;74.29;91434.41;2047398;70;20239;-81
2023/11/25 01:32:51;;;;;;;1.05;0.85;;;;;;;2.18;75.49;91423.56;2044066;70;20648;-81
2023/11/25 01:35:16;;;;;;;1.52;0.55;;;;;;;1.87;77.07;91409.59;2047364;70;20154;-81
2023/11/25 01:37:42;;;;;;;1.60;0.50;;;;;;;2.09;76.14;91405.63;2044016;70;20196;-80
2023/11/25 01:40:10;;;;;;;1.00;0.90;;;;;;;1.48;79.63;91402.03;2046885;70;20577;-80
2023/11/25 01:42:37;;;;;;;0.98;0.73;;;;;;;1.85;79.29;91396.31;2047453;70;20147;-81
2023/11/25 01:45:03;;;;;;;0.70;0.70;;;;;;;2.17;77.24;91381.19;2047306;70;20142;-81
2023/11/25 01:47:30;;;;;;;0.55;0.55;;;;;;;2.23;76.02;91370.50;2047340;70;20138;-80
2023/11/25 01:49:57;;;;;;;0.63;0.50;;;;;;;2.37;75.52;91379.09;2041302;70;20590;-81
2023/11/25 01:52:24;;;;;;;1.30;0.40;;;;;;;2.19;75.72;91392.44;2044216;70;20225;-80
2023/11/25 01:54:52;;;;;;;0.30;0.30;;;;;;;2.30;74.65;91402.22;2047535;70;20162;-81
2023/11/25 01:57:21;;;;;;;0.45;0.30;;;;;;;2.45;74.05;91418.53;2044360;70;20166;-81
2023/11/25 02:00:07;;;;;;;0.35;0.20;;;;;;;2.34;73.29;91421.94;2047499;70;20170;-81
2023/11/25 02:02:38;;;;;;;0.40;0.40;;;;;;;2.48;73.59;91436.09;2047324;70;20173;-80
2023/11/25 02:05:04;;;;;;;0.40;0.40;;;;;;;2.08;75.52;91415.28;2047361;70;20142;-81
2023/11/25 02:07:30;;;;;;;1.60;0.40;;;;;;;2.31;75.72;91431.44;2043996;70;20141;-81
2023/11/25 02:09:58;;;;;;;0.25;0.25;;;;;;;2.45;75.31;91428.91;2044070;70;20155;-81
2023/11/25 02:12:24;;;;;;;0.40;0.40;;;;;;;2.48;74.95;91442.38;2044086;70;20254;-80
2023/11/25 02:14:50;;;;;;;0.88;0.50;;;;;;;2.48;74.64;91439.59;2043973;70;20550;-80
2023/11/25 02:17:15;;;;;;;0.90;0.40;;;;;;;2.51;75.07;91437.66;2043865;70;20127;-80
2023/11/25 02:19:44;;;;;;;0.93;0.77;;;;;;;2.14;75.72;91435.13;2047379;70;20690;-80
2023/11/25 02:22:11;;;;;;;1.42;1.05;;;;;;;1.98;77.19;91451.38;2044112;70;20205;-81
2023/11/25 02:24:37;;;;;;;0.77;0.77;;;;;;;2.34;76.04;91462.84;2047219;70;20643;-80
2023/11/25 02:27:04;;;;;;;0.90;0.70;;;;;;;2.14;76.54;91459.38;2047268;70;20158;-81
2023/11/25 02:29:32;;;;;;;1.05;0.60;;;;;;;2.32;76.10;91474.56;2044095;70;20190;-80
2023/11/25 02:31:58;;;;;;;0.40;0.40;;;;;;;2.49;75.61;91462.53;2041177;70;20617;-81
2023/11/25 02:34:25;;;;;;;0.60;0.60;;;;;;;2.17;76.34;91467.28;2044058;70;20631;-80
2023/11/25 02:36:51;;;;;;;0.50;0.50;;;;;;;2.25;76.99;91451.19;2047107;70;20170;-80
2023/11/25 02:39:20;;;;;;;0.40;0.40;;;;;;;2.44;75.84;91455.97;2047005;70;20177;-80
2023/11/25 02:41:49;;;;;;;0.95;0.47;;;;;;;2.51;75.79;91465.44;2044082;70;20154;-81
2023/11/25 02:44:16;;;;;;;0.75;0.50;;;;;;;2.53;75.59;91462.81;2047255;70;20151;-80
2023/11/25 02:46:46;;;;;;;0.70;0.60;;;;;;;2.54;75.01;91475.38;2047145;70;20198;-81
2023/11/25 02:49:12;;;;;;;1.27;0.55;;;;;;;2.46;75.72;91478.31;2047287;70;20150;-81
2023/11/25 02:51:49;;;;;;;0.50;0.50;;;;;;;2.31;76.30;91475.88;2047442;70;20151;-80
2023/11/25 02:54:15;;;;;;;0.22;0.22;;;;;;;1.74;76.27;91436.50;2047206;70;20153;-80
2023/11/25 02:56:41;;;;;;;0.93;0.40;;;;;;;1.48;78.40;91454.72;2041273;70;20131;-80
2023/11/25 02:59:08;;;;;;;0.68;0.35;;;;;;;1.51;78.62;91453.56;2047501;70;20171;-80
2023/11/25 03:01:36;;;;;;;5.63;2.00;;;;;;;1.47;80.27;91435.91;2044023;70;20138;-80
2023/11/25 03:04:05;;;;;;;3.35;1.40;;;;;;;1.82;78.37;91447.44;2043976;70;20626;-80
2023/11/25 03:06:31;;;;;;;2.13;0.70;;;;;;;1.95;76.96;91433.09;2043829;70;20237;-79
2023/11/25 03:08:57;;;;;;;1.73;0.80;;;;;;;2.13;76.67;91457.94;2047081;70;20154;-79
2023/11/25 03:11:23;;;;;;;0.75;0.40;;;;;;;2.08;76.17;91442.31;2043871;70;20158;-81
2023/11/25 03:13:49;;;;;;;0.55;0.32;;;;;;;1.99;76.94;91447.28;2047665;70;20156;-80
2023/11/25 03:16:24;;;;;;;0.60;0.40;;;;;;;2.23;76.11;91461.41;2044507;70;20206;-80
2023/11/25 03:18:51;;;;;;;0.60;0.40;;;;;;;1.70;75.95;91460.44;2047824;70;20245;-80
2023/11/25 03:21:20;;;;;;;0.20;0.20;;;;;;;1.78;71.32;91470.06;2044413;70;20556;-80
2023/11/25 03:23:47;;;;;;;0.60;0.47;;;;;;;1.96;74.84;91470.63;2047729;70;20149;-79
2023/11/25 03:26:14;;;;;;;0.68;0.40;;;;;;;2.04;74.64;91479.56;2047780;70;20154;-79
2023/11/25 03:28:40;;;;;;;2.05;0.30;;;;;;;1.86;74.30;91489.34;2047516;70;20227;-79
2023/11/25 03:31:10;;;;;;;1.13;0.30;;;;;;;1.70;73.52;91469.50;2047662;70;20178;-79
2023/11/25 03:33:36;;;;;;;1.27;0.40;;;;;;;1.83;73.58;91493.28;2047763;70;20146;-80
2023/11/25 03:36:04;;;;;;;0.93;0.40;;;;;;;1.90;68.75;91492.41;2044418;70;20174;-78
2023/11/25 03:38:30;;;;;;;0.75;0.32;;;;;;;2.08;70.95;91515.22;2046976;70;20162;-78
2023/11/25 03:40:56;;;;;;;1.23;0.47;;;;;;;1.89;71.19;91509.66;2047940;70;20189;-78
2023/11/25 03:43:24;;;;;;;1.05;0.30;;;;;;;1.94;72.24;91487.16;2044617;70;20163;-79
2023/11/25 03:45:50;;;;;;;1.35;0.30;;;;;;;1.73;69.12;91489.78;2047548;70;20145;-79
2023/11/25 03:48:19;;;;;;;2.30;0.70;;;;;;;1.81;70.50;91506.28;2049044;70;20151;-81
2023/11/25 03:50:47;;;;;;;9.27;1.27;;;;;;;1.97;71.28;91510.97;2048280;70;20249;-79
2023/11/25 03:53:13;;;;;;;2.03;0.40;;;;;;;1.95;72.51;91499.72;2044687;70;20155;-79
2023/11/25 03:55:39;;;;;;;0.98;0.30;;;;;;;2.04;69.28;91528.78;2047967;70;20225;-79
2023/11/25 03:58:05;;;;;;;0.25;0.20;;;;;;;1.77;68.32;91543.53;2044688;70;20143;-80
2023/11/25 04:00:32;;;;;;;0.45;0.30;;;;;;;2.00;67.85;91551.44;2044666;70;20644;-80
2023/11/25 04:02:57;;;;;;;0.45;0.30;;;;;;;1.74;66.80;91538.41;2044417;70;20269;-79
2023/11/25 04:05:23;;;;;;;0.75;0.30;;;;;;;1.95;65.07;91546.91;2044760;70;20246;-80
2023/11/25 04:07:49;;;;;;;0.45;0.20;;;;;;;1.96;64.75;91531.69;2048018;70;20163;-80
2023/11/25 04:10:21;;;;;;;0.70;0.40;;;;;;;1.99;64.51;91549.97;2047953;70;20149;-79
2023/11/25 04:12:48;;;;;;;0.87;0.23;;;;;;;2.01;68.72;91543.81;2044771;70;20599;-80
2023/11/25 04:15:19;;;;;;;0.65;0.40;;;;;;;1.57;68.26;91538.53;2044723;70;20663;-80
2023/11/25 04:17:45;;;;;;;0.68;0.40;;;;;;;1.76;69.02;91547.59;2047933;70;20298;-79
2023/11/25 04:20:13;;;;;;;1.33;0.28;;;;;;;1.65;68.17;91555.75;2044757;70;20155;-80
2023/11/25 04:22:47;;;;;;;0.30;0.30;;;;;;;1.80;65.37;91554.78;2047933;70;20150;-79
2023/11/25 04:25:15;;;;;;;1.08;0.40;;;;;;;1.37;62.37;91555.09;2048184;70;20151;-80
2023/11/25 04:27:47;;;;;;;0.43;0.30;;;;;;;1.69;63.47;91586.56;2048028;70;20178;-80
2023/11/25 04:30:13;;;;;;;0.87;0.40;;;;;;;1.69;65.53;91592.84;2044711;70;20226;-80
2023/11/25 04:32:40;;;;;;;1.38;0.40;;;;;;;0.94;64.18;91601.75;2044368;70;20244;-80
2023/11/25 04:35:07;;;;;;;1.90;0.30;;;;;;;1.46;65.53;91629.28;2048013;70;20234;-80
2023/11/25 04:37:33;;;;;;;0.85;0.30;;;;;;;1.25;67.60;91629.78;2048007;70;20555;-80
2023/11/25 04:39:59;;;;;;;0.28;0.20;;;;;;;1.43;66.90;91641.53;2047915;70;20158;-80
2023/11/25 04:42:25;;;;;;;0.35;0.35;;;;;;;1.15;66.05;91640.09;2047929;70;20595;-80
2023/11/25 04:44:51;;;;;;;0.30;0.30;;;;;;;1.62;69.37;91648.47;2048132;70;20182;-80
2023/11/25 04:47:16;;;;;;;0.30;0.30;;;;;;;1.66;70.29;91646.03;2047882;70;20147;-80
2023/11/25 04:49:42;;;;;;;0.30;0.30;;;;;;;1.78;71.50;91650.41;2047802;70;20567;-81
2023/11/25 04:52:08;;;;;;;1.00;0.40;;;;;;;1.81;72.05;91654.09;2047889;70;20154;-80
2023/11/25 04:54:33;;;;;;;1.23;0.20;;;;;;;1.80;71.72;91652.63;2044598;70;20139;-80
2023/11/25 04:56:59;;;;;;;2.10;0.90;;;;;;;1.69;71.43;91653.88;2048048;70;20230;-81
2023/11/25 04:59:25;;;;;;;0.45;0.45;;;;;;;1.70;71.63;91663.69;2047804;70;20150;-81
2023/11/25 05:01:50;;;;;;;0.80;0.30;;;;;;;1.60;71.08;91678.81;2047758;70;20278;-80
2023/11/25 05:04:16;;;;;;;1.08;0.93;;;;;;;1.14;71.38;91676.69;2048042;70;20154;-80
2023/11/25 05:06:43;;;;;;;0.40;0.30;;;;;;;1.56;72.46;91698.69;2047944;70;20230;-80
2023/11/25 05:09:18;;;;;;;0.30;0.28;;;;;;;1.47;72.24;91702.16;2047894;70;20197;-82
2023/11/25 05:11:44;;;;;;;0.20;0.20;;;;;;;1.75;71.79;91704.31;2047522;70;20245;-81
2023/11/25 05:14:10;;;;;;;0.35;0.32;;;;;;;1.59;69.83;91707.88;2047984;70;20564;-81
2023/11/25 05:16:35;;;;;;;0.20;0.20;;;;;;;1.62;69.12;91715.78;2047931;70;20141;-80
2023/11/25 05:19:02;;;;;;;0.43;0.40;;;;;;;1.32;68.68;91710.66;2048144;70;20681;-80
2023/11/25 05:21:29;;;;;;;0.38;0.30;;;;;;;1.32;69.78;91722.47;2047938;70;20257;-81
2023/11/25 05:23:54;;;;;;;1.08;0.43;;;;;;;1.49;69.74;91738.34;2047700;70;20254;-81
2023/11/25 05:26:20;;;;;;;2.35;0.65;;;;;;;1.32;65.50;91758.53;2044346;70;20240;-81
2023/11/25 05:28:45;;;;;;;2.08;0.70;;;;;;;1.40;64.37;91758.44;2047609;70;20261;-82
2023/11/25 05:31:11;;;;;;;1.92;0.43;;;;;;;1.50;65.00;91762.72;2047412;70;20169;-81
2023/11/25 05:34:03;;;;;;;0.95;0.50;;;;;;;1.58;65.00;91756.34;2047533;70;20159;-81
2023/11/25 05:36:32;;;;;;;1.25;0.50;;;;;;;1.35;66.31;91753.88;2044473;70;20166;-81
2023/11/25 05:39:02;;;;;;;2.03;0.60;;;;;;;1.18;66.53;91746.31;2047505;70;20143;-81
2023/11/25 05:41:27;;;;;;;1.15;0.50;;;;;;;1.47;66.30;91755.56;2047578;70;20153;-79
2023/11/25 05:43:53;;;;;;;2.28;0.63;;;;;;;1.43;66.16;91752.47;2047604;70;20539;-81
2023/11/25 05:46:23;;;;;;;1.23;0.50;;;;;;;1.55;66.12;91754.72;2047524;70;20166;-81
2023/11/25 05:48:54;;;;;;;1.23;0.68;;;;;;;1.34;65.52;91766.28;2044196;70;20197;-81
2023/11/25 05:51:20;;;;;;;1.00;0.57;;;;;;;1.40;66.45;91773.03;2047605;70;20226;-81
2023/11/25 05:53:46;;;;;;;1.23;0.50;;;;;;;1.46;67.12;91773.50;2047489;70;20530;-81
2023/11/25 05:56:12;;;;;;;1.48;0.45;;;;;;;1.42;67.89;91766.91;2044035;70;20175;-81
2023/11/25 05:58:37;;;;;;;1.88;0.60;;;;;;;1.55;67.88;91785.25;2047370;70;20149;-81
2023/11/25 06:01:04;;;;;;;1.73;0.55;;;;;;;1.48;68.59;91789.59;2044097;70;20609;-81
2023/11/25 06:03:29;;;;;;;1.20;0.47;;;;;;;1.48;68.81;91806.22;2047352;70;20146;-81
2023/11/25 06:05:55;;;;;;;1.90;0.80;;;;;;;1.18;68.15;91794.19;2047447;70;20174;-81
2023/11/25 06:08:20;;;;;;;1.30;0.90;;;;;;;1.04;64.36;91804.13;2047500;70;20185;-81
2023/11/25 06:10:50;;;;;;;0.73;0.57;;;;;;;1.44;65.21;91806.63;2047332;70;20573;-82
2023/11/25 06:13:15;;;;;;;2.13;0.77;;;;;;;0.72;59.75;91777.31;2047327;70;20146;-81
2023/11/25 06:15:41;;;;;;;2.10;0.68;;;;;;;1.11;61.50;91813.69;2044084;70;20150;-81
2023/11/25 06:18:07;;;;;;;1.92;0.50;;;;;;;1.35;60.94;91817.66;2047612;70;20154;-81
2023/11/25 06:20:34;;;;;;;1.48;0.70;;;;;;;1.40;63.41;91831.28;2047446;70;20159;-81
2023/11/25 06:23:00;;;;;;;0.65;0.50;;;;;;;1.20;63.30;91840.75;2047517;70;20629;-81
2023/11/25 06:25:26;;;;;;;1.98;0.60;;;;;;;1.15;63.54;91844.50;2047464;70;20146;-81
2023/11/25 06:27:52;;;;;;;1.08;0.60;;;;;;;1.12;62.75;91842.88;2047488;70;20583;-81
2023/11/25 06:30:18;;;;;;;0.50;0.50;;;;;;;0.48;63.34;91842.53;2047542;70;20162;-81
2023/11/25 06:32:44;;;;;;;2.05;0.60;;;;;;;0.34;63.71;91849.69;2047314;70;20217;-81
2023/11/25 06:35:11;;;;;;;4.28;0.57;;;;;;;0.37;66.46;91862.41;2047341;70;20150;-82
2023/11/25 06:37:39;;;;;;;1.02;0.47;;;;;;;0.31;66.21;91853.56;2047419;70;20254;-83
2023/11/25 06:40:06;;;;;;;6.32;4.30;;;;;;;0.82;67.00;91866.06;2047530;70;20290;-82
2023/11/25 06:42:33;;;;;;;2.85;1.10;;;;;;;0.10;67.99;91865.72;2047474;70;20249;-82
2023/11/25 06:44:58;;;;;;;2.05;1.00;;;;;;;-0.21;69.94;91864.41;2047527;70;20142;-82
2023/11/25 06:47:24;;;;;;;4.05;1.52;;;;;;;0.19;70.68;91870.63;2044306;70;20147;-82
2023/11/25 06:49:52;;;;;;;3.65;1.27;;;;;;;0.03;70.13;91883.09;2047909;70;20135;-82
2023/11/25 06:52:18;;;;;;;3.40;1.40;;;;;;;0.28;70.78;91902.50;2047831;70;20142;-82
2023/11/25 06:54:44;;;;;;;2.42;1.65;;;;;;;0.61;71.18;91892.09;2047736;70;20142;-82
2023/11/25 06:57:09;;;;;;;5.28;3.53;;;;;;;0.67;70.30;91886.34;2048070;70;20166;-82
2023/11/25 06:59:35;;;;;;;3.42;1.75;;;;;;;0.72;69.30;91891.63;2044521;70;20162;-83
2023/11/25 07:02:00;;;;;;;4.50;2.05;;;;;;;0.85;69.74;91898.91;2047727;70;20221;-85
2023/11/25 07:04:26;;;;;;;1.92;1.30;;;;;;;0.84;70.04;91886.38;2047917;70;20500;-82
2023/11/25 07:06:52;;;;;;;2.58;1.35;;;;;;;0.62;69.12;91890.06;2047787;70;20143;-82
2023/11/25 07:09:18;;;;;;;3.80;0.98;;;;;;;0.75;69.04;91906.41;2047984;70;20159;-83
2023/11/25 07:11:48;;;;;;;2.08;1.10;;;;;;;0.71;68.53;91900.53;2047819;70;20147;-81
2023/11/25 07:14:14;;;;;;;2.17;0.80;;;;;;;0.86;69.41;91908.69;2047783;70;20271;-81
2023/11/25 07:16:40;;;;;;;2.28;1.10;;;;;;;0.82;69.92;91924.97;2047745;70;20531;-82
2023/11/25 07:19:07;;;;;;;1.35;0.93;;;;;;;0.87;68.96;91920.50;2047765;70;20262;-82
2023/11/25 07:21:33;;;;;;;2.78;1.40;;;;;;;0.36;65.04;91927.34;2047801;70;20594;-82
2023/11/25 07:23:59;;;;;;;5.60;2.25;;;;;;;0.34;67.36;91927.94;2047855;70;20146;-82
2023/11/25 07:26:26;;;;;;;4.13;1.73;;;;;;;0.66;67.41;91927.16;2047764;70;20601;-82
2023/11/25 07:28:52;;;;;;;4.35;2.17;;;;;;;0.75;66.91;91932.06;2041383;70;20542;-82
2023/11/25 07:31:17;;;;;;;2.35;1.58;;;;;;;0.78;67.16;91941.28;2047738;70;20602;-82
2023/11/25 07:33:44;;;;;;;3.63;1.45;;;;;;;0.84;67.06;91944.56;2047629;70;20193;-82
2023/11/25 07:36:10;;;;;;;2.95;1.23;;;;;;;0.88;66.92;91938.63;2048131;70;20159;-83
2023/11/25 07:38:35;;;;;;;3.50;1.20;;;;;;;1.07;66.98;91949.91;2047940;70;20159;-82
2023/11/25 07:41:01;;;;;;;2.15;1.10;;;;;;;1.31;66.47;91951.19;2047935;70;20159;-84
2023/11/25 07:43:26;;;;;;;5.28;1.52;;;;;;;1.35;66.77;91950.78;2047991;70;20596;-85
2023/11/25 07:45:52;;;;;;;1.98;0.90;;;;;;;1.39;66.04;91951.09;2047916;70;20173;-83
2023/11/25 07:48:19;;;;;;;3.58;0.90;;;;;;;1.36;65.93;91950.19;2048088;70;20216;-83
2023/11/25 07:50:45;;;;;;;2.03;0.90;;;;;;;1.22;64.10;91944.22;2048141;70;20262;-83
2023/11/25 07:53:14;;;;;;;2.60;1.00;;;;;;;1.23;65.78;91944.97;2048101;70;20147;-82
2023/11/25 07:55:40;;;;;;;1.25;0.80;;;;;;;1.34;65.42;91944.50;2048106;70;20154;-82
2023/11/25 07:58:06;;;;;;;2.95;0.90;;;;;;;1.43;66.21;91945.91;2048296;70;20507;-83
2023/11/25 08:00:31;;;;;;;1.23;0.77;;;;;;;1.42;66.08;91961.81;2048075;70;20158;-82
2023/11/25 08:02:58;;;;;;;2.05;0.82;;;;;;;1.55;65.79;91957.22;2048148;70;20213;-82
2023/11/25 08:05:25;;;;;;;2.85;1.10;;;;;;;1.60;64.01;91962.53;2048336;70;20605;-82
2023/11/25 08:07:54;;;;;;;4.05;1.05;;;;;;;1.66;63.41;91962.31;2048269;70;20587;-83
2023/11/25 08:10:21;;;;;;;5.38;1.45;;;;;;;1.40;63.72;91969.94;2048166;70;20579;-82
2023/11/25 08:12:47;;;;;;;2.58;1.10;;;;;;;1.69;63.92;91969.47;2045268;70;20181;-82
2023/11/25 08:15:17;;;;;;;1.65;1.00;;;;;;;1.81;64.41;91978.06;2048198;70;20139;-82
2023/11/25 08:17:43;;;;;;;2.35;0.90;;;;;;;1.91;64.41;91981.63;2048111;70;20154;-82
2023/11/25 08:20:12;;;;;;;2.35;1.33;;;;;;;2.04;64.19;91976.47;2048161;70;20158;-81
2023/11/25 08:22:38;;;;;;;2.58;1.08;;;;;;;2.15;62.43;91977.28;2048312;70;20158;-84
2023/11/25 08:25:07;;;;;;;2.45;1.10;;;;;;;2.22;62.14;91973.69;2048151;70;20275;-85
2023/11/25 08:27:37;;;;;;;1.85;0.90;;;;;;;2.22;62.85;91982.00;2048114;70;20202;-85
2023/11/25 08:30:08;;;;;;;2.13;1.08;;;;;;;2.47;62.70;91981.88;2048093;70;20550;-84
2023/11/25 08:32:39;;;;;;;2.72;1.00;;;;;;;2.76;62.16;91990.38;2048090;70;20159;-83
2023/11/25 08:35:06;;;;;;;2.30;1.00;;;;;;;3.29;63.45;91983.25;2048223;70;20142;-84
2023/11/25 08:37:32;;;;;;;1.42;0.90;;;;;;;3.56;63.39;91995.03;2048137;70;20166;-85
2023/11/25 08:39:58;;;;;;;2.65;1.00;;;;;;;3.66;60.46;91992.28;2048150;70;20251;-83
2023/11/25 08:42:26;;;;;;;6.70;3.00;;;;;;;3.56;58.46;91995.03;2048072;70;20295;-81
2023/11/25 08:44:52;;;;;;;9.55;4.90;;;;;;;3.18;58.48;91990.13;2048153;70;20162;-81
2023/11/25 08:47:18;;;;;;;6.82;3.78;;;;;;;3.57;58.95;91998.56;2048088;70;20213;-82
2023/11/25 08:49:45;;;;;;;3.42;1.90;;;;;;;3.55;56.60;91996.38;2048180;70;20245;-82
2023/11/25 08:52:12;;;;;;;3.90;1.90;;;;;;;3.58;54.55;92002.09;2045050;70;20122;-83
2023/11/25 08:54:38;;;;;;;2.97;1.70;;;;;;;3.60;56.37;92002.97;2048060;70;20193;-84
2023/11/25 08:57:07;;;;;;;4.22;2.40;;;;;;;2.19;58.42;92005.38;2048201;70;20146;-83
2023/11/25 08:59:33;;;;;;;3.85;2.10;;;;;;;2.45;59.57;92013.00;2045016;70;20147;-82
2023/11/25 09:01:58;;;;;;;5.90;2.47;;;;;;;3.04;58.83;92022.41;2047405;70;20226;-85
2023/11/25 09:04:27;;;;;;;6.03;3.25;;;;;;;2.70;57.97;92032.34;2044481;70;20186;-83
2023/11/25 09:06:52;;;;;;;5.45;2.95;;;;;;;2.08;60.57;92023.28;2044283;70;20171;-84
2023/11/25 09:09:20;;;;;;;6.07;2.72;;;;;;;2.16;60.96;92023.94;2044279;70;20697;-83
2023/11/25 09:11:48;;;;;;;4.25;2.20;;;;;;;2.87;58.69;92020.41;2044301;70;20603;-84
2023/11/25 09:14:16;;;;;;;3.40;2.17;;;;;;;3.67;58.68;92027.16;2044300;70;20163;-83
2023/11/25 09:16:43;;;;;;;4.88;2.50;;;;;;;4.25;57.84;92018.13;2044259;70;20175;-83
2023/11/25 09:19:09;;;;;;;4.55;2.50;;;;;;;4.54;57.17;92029.28;2041223;70;20222;-83
2023/11/25 09:21:34;;;;;;;4.03;2.20;;;;;;;5.12;56.42;92018.00;2044357;70;20582;-83
2023/11/25 09:24:00;;;;;;;4.90;2.40;;;;;;;5.27;55.75;92014.16;2044413;70;20139;-83
2023/11/25 09:26:25;;;;;;;5.95;2.40;;;;;;;5.65;53.83;92020.88;2044371;70;20206;-82
2023/11/25 09:28:52;;;;;;;3.42;1.27;;;;;;;6.14;53.11;92010.16;2044290;70;20709;-83
2023/11/25 09:31:18;;;;;;;2.72;1.00;;;;;;;6.43;49.87;92010.69;2044268;70;20154;-83
2023/11/25 09:33:44;;;;;;;4.78;1.00;;;;;;;6.69;49.17;92022.09;2044303;70;20151;-83
2023/11/25 09:36:09;;;;;;;4.40;1.08;;;;;;;6.86;47.82;92025.31;2044425;70;20157;-84
2023/11/25 09:38:35;;;;;;;2.28;1.30;;;;;;;6.63;47.26;92014.06;2044423;70;20141;-82
2023/11/25 09:41:02;;;;;;;2.00;1.25;;;;;;;6.49;47.38;92019.47;2044379;70;20161;-83
2023/11/25 09:43:29;;;;;;;2.35;1.30;;;;;;;6.81;47.04;92018.00;2044351;70;20159;-83
2023/11/25 09:45:56;;;;;;;8.18;4.18;;;;;;;6.72;47.24;92024.41;2044234;70;20135;-82
2023/11/25 09:48:21;;;;;;;3.10;1.33;;;;;;;6.95;45.85;92011.84;2044331;70;20683;-82
2023/11/25 09:50:52;;;;;;;3.58;2.08;;;;;;;6.59;45.40;92031.28;2044268;70;20159;-82
2023/11/25 09:53:33;;;;;;;5.45;3.13;;;;;;;5.32;48.24;92024.25;2044461;70;20198;-81
2023/11/25 09:56:05;;;;;;;5.32;2.25;;;;;;;5.50;51.29;92030.38;2044556;70;20175;-83
2023/11/25 09:58:34;;;;;;;5.68;2.00;;;;;;;5.41;50.76;92034.66;2041036;70;20179;-83
2023/11/25 10:01:00;;;;;;;4.82;1.80;;;;;;;5.54;49.59;92036.19;2044269;70;20176;-83
2023/11/25 10:03:31;;;;;;;4.43;1.65;;;;;;;5.39;51.47;92033.78;2044281;70;20167;-83
2023/11/25 10:05:57;;;;;;;2.53;1.60;;;;;;;5.61;51.17;92033.25;2044361;70;20634;-82
2023/11/25 10:08:23;;;;;;;3.25;1.55;;;;;;;5.58;50.76;92031.63;2044350;70;20243;-83
2023/11/25 10:11:08;;;;;;;4.63;1.40;;;;;;;6.66;49.69;92020.50;2044334;70;20197;-82
2023/11/25 10:13:42;;;;;;;3.53;1.75;;;;;;;4.93;50.63;92021.59;2044273;70;20222;-83
2023/11/25 10:16:08;;;;;;;9.15;2.85;;;;;;;5.76;52.20;92032.13;2044161;70;20230;-82
2023/11/25 10:18:37;;;;;;;1.73;1.23;;;;;;;6.62;49.84;92032.91;2044413;70;20143;-83
2023/11/25 10:21:05;;;;;;;5.60;1.67;;;;;;;7.67;48.06;92031.69;2044201;70;20229;-83
2023/11/25 10:23:32;;;;;;;5.43;3.00;;;;;;;7.59;46.34;92028.38;2044332;70;20170;-83
2023/11/25 10:26:03;;;;;;;3.53;1.58;;;;;;;5.99;48.32;92031.59;2044265;70;20546;-83
2023/11/25 10:28:32;;;;;;;3.72;1.65;;;;;;;6.65;47.15;92033.78;2044434;70;20162;-83
2023/11/25 10:30:59;;;;;;;4.35;1.70;;;;;;;7.33;47.13;92019.09;2044175;70;20146;-83
2023/11/25 10:33:27;;;;;;;3.05;1.38;;;;;;;7.51;45.51;92030.69;2044219;70;20139;-83
2023/11/25 10:35:53;;;;;;;3.22;1.30;;;;;;;7.89;44.68;92033.03;2044267;70;20515;-83
2023/11/25 10:38:22;;;;;;;1.98;1.13;;;;;;;8.63;43.66;92031.69;2044195;70;20151;-83
2023/11/25 10:40:51;;;;;;;3.53;1.92;;;;;;;9.41;40.56;92042.31;2044319;70;20603;-84
2023/11/25 10:43:19;;;;;;;4.03;2.00;;;;;;;10.18;43.40;92037.97;2044347;70;20238;-82
2023/11/25 10:45:46;;;;;;;3.80;1.90;;;;;;;11.47;40.55;92030.19;2044267;70;20158;-82
2023/11/25 10:48:12;;;;;;;3.30;1.60;;;;;;;12.54;39.74;92035.66;2044558;70;20173;-82
2023/11/25 10:50:43;;;;;;;5.50;1.50;;;;;;;12.34;38.18;92029.84;2044416;70;20150;-83
2023/11/25 10:53:13;;;;;;;2.83;1.30;;;;;;;11.23;38.43;92037.50;2044188;70;20214;-81
2023/11/25 10:55:42;;;;;;;3.15;1.40;;;;;;;10.18;38.68;92026.72;2044241;70;20135;-83
2023/11/25 10:58:11;;;;;;;3.30;1.75;;;;;;;7.79;42.26;92006.44;2044207;70;20584;-84
2023/11/25 11:00:37;;;;;;;5.95;2.78;;;;;;;10.23;41.75;92012.84;2044279;70;20154;-86
2023/11/25 11:03:07;;;;;;;8.65;3.60;;;;;;;10.31;40.69;92016.84;2044098;70;20591;-84
2023/11/25 11:05:52;;;;;;;6.95;2.63;;;;;;;7.35;42.57;92008.03;2044024;70;20159;-83
2023/11/25 11:08:32;;;;;;;4.90;2.20;;;;;;;6.55;45.22;92000.31;2044284;70;20238;-83
2023/11/25 11:11:16;;;;;;;6.18;2.38;;;;;;;6.30;46.34;92000.78;2044278;70;20226;-82
2023/11/25 11:13:49;;;;;;;7.93;4.15;;;;;;;6.61;47.53;92016.72;2044234;70;20161;-87
2023/11/25 11:16:37;;;;;;;7.90;3.70;;;;;;;5.11;50.34;92016.53;2041018;70;20147;-83
2023/11/25 11:19:04;;;;;;;6.63;2.83;;;;;;;4.96;50.87;92016.88;2044135;70;20157;-82
2023/11/25 11:21:36;;;;;;;4.30;2.58;;;;;;;5.55;51.07;92027.25;2044181;70;20179;-82
2023/11/25 11:24:02;;;;;;;6.63;2.30;;;;;;;6.18;50.13;92030.00;2044036;70;20201;-82
2023/11/25 11:26:36;;;;;;;5.60;2.17;;;;;;;5.58;50.08;92036.47;2044232;70;20181;-84
2023/11/25 11:29:15;;;;;;;3.42;1.80;;;;;;;6.03;49.06;92042.31;2044152;70;20250;-84
2023/11/25 11:32:19;;;;;;;5.47;2.42;;;;;;;5.23;46.65;92041.78;2044028;70;20190;-84
2023/11/25 11:34:45;;;;;;;4.15;1.73;;;;;;;5.25;47.98;92045.44;2030732;70;20533;-85
2023/11/25 11:37:10;;;;;;;3.53;1.80;;;;;;;4.45;49.38;92052.31;2031778;70;20190;-82
2023/11/25 11:39:51;;;;;;;3.53;1.40;;;;;;;5.01;48.31;92055.63;2034487;70;20631;-84
2023/11/25 11:42:23;;;;;;;2.28;1.10;;;;;;;4.55;47.86;92047.47;2034304;70;20155;-82
2023/11/25 11:45:17;;;;;;;1.83;0.65;;;;;;;4.17;47.33;92039.81;2031666;70;20144;-80